sensor_id;sensor_type;location;lat;lon;timestamp;P1;durP1;ratioP1;P2;durP2;ratioP2
3541;SDS011;1785;47.388;8.538;2023-08-20T00:01:01;9.03;;;6.23;;
3541;SDS011;1785;47.388;8.538;2023-08-20T00:03:29;13.90;;;8.33;;
3541;SDS011;1785;47.388;8.538;2023-08-20T00:05:55;11.13;;;7.23;;
3541;SDS011;1785;47.388;8.538;2023-08-20T00:08:22;8.80;;;6.23;;
3541;SDS011;1785;47.388;8.538;2023-08-20T00:10:48;7.27;;;6.57;;
3541;SDS011;1785;47.388;8.538;2023-08-20T00:13:14;9.90;;;6.97;;
3541;SDS011;1785;47.388;8.538;2023-08-20T00:15:41;8.77;;;6.80;;
3541;SDS011;1785;47.388;8.538;2023-08-20T00:18:07;9.60;;;7.10;;
3541;SDS011;1785;47.388;8.538;2023-08-20T00:20:34;7.33;;;6.63;;
3541;SDS011;1785;47.388;8.538;2023-08-20T00:23:01;9.02;;;7.63;;
3541;SDS011;1785;47.388;8.538;2023-08-20T00:25:27;9.70;;;5.80;;
3541;SDS011;1785;47.388;8.538;2023-08-20T00:27:54;7.60;;;6.60;;
3541;SDS011;1785;47.388;8.538;2023-08-20T00:30:21;7.43;;;6.73;;
3541;SDS011;1785;47.388;8.538;2023-08-20T00:32:47;8.33;;;6.60;;
3541;SDS011;1785;47.388;8.538;2023-08-20T00:35:14;7.60;;;6.70;;
3541;SDS011;1785;47.388;8.538;2023-08-20T00:37:40;8.63;;;7.10;;
3541;SDS011;1785;47.388;8.538;2023-08-20T00:40:06;12.93;;;6.87;;
3541;SDS011;1785;47.388;8.538;2023-08-20T00:42:34;8.13;;;7.00;;
3541;SDS011;1785;47.388;8.538;2023-08-20T00:45:00;10.30;;;7.07;;
3541;SDS011;1785;47.388;8.538;2023-08-20T00:47:29;9.97;;;7.90;;
3541;SDS011;1785;47.388;8.538;2023-08-20T00:49:55;8.17;;;6.70;;
3541;SDS011;1785;47.388;8.538;2023-08-20T00:52:21;6.97;;;5.90;;
3541;SDS011;1785;47.388;8.538;2023-08-20T00:54:48;11.17;;;7.17;;
3541;SDS011;1785;47.388;8.538;2023-08-20T00:57:15;6.77;;;6.17;;
3541;SDS011;1785;47.388;8.538;2023-08-20T00:59:43;6.60;;;5.90;;
3541;SDS011;1785;47.388;8.538;2023-08-20T01:02:10;8.80;;;7.93;;
3541;SDS011;1785;47.388;8.538;2023-08-20T01:04:37;10.47;;;7.50;;
3541;SDS011;1785;47.388;8.538;2023-08-20T01:07:04;7.57;;;6.93;;
3541;SDS011;1785;47.388;8.538;2023-08-20T01:09:40;9.13;;;6.73;;
3541;SDS011;1785;47.388;8.538;2023-08-20T01:12:19;7.50;;;6.80;;
3541;SDS011;1785;47.388;8.538;2023-08-20T01:14:47;9.10;;;7.03;;
3541;SDS011;1785;47.388;8.538;2023-08-20T01:17:13;8.00;;;7.20;;
3541;SDS011;1785;47.388;8.538;2023-08-20T01:19:40;9.70;;;7.50;;
3541;SDS011;1785;47.388;8.538;2023-08-20T01:22:14;8.40;;;7.50;;
3541;SDS011;1785;47.388;8.538;2023-08-20T01:24:57;8.07;;;7.20;;
3541;SDS011;1785;47.388;8.538;2023-08-20T01:27:34;10.53;;;6.50;;
3541;SDS011;1785;47.388;8.538;2023-08-20T01:30:10;8.30;;;7.57;;
3541;SDS011;1785;47.388;8.538;2023-08-20T01:32:38;9.33;;;7.40;;
3541;SDS011;1785;47.388;8.538;2023-08-20T01:35:07;14.00;;;7.93;;
3541;SDS011;1785;47.388;8.538;2023-08-20T01:37:34;7.97;;;7.30;;
3541;SDS011;1785;47.388;8.538;2023-08-20T01:40:00;8.85;;;7.95;;
3541;SDS011;1785;47.388;8.538;2023-08-20T01:42:26;10.80;;;6.50;;
3541;SDS011;1785;47.388;8.538;2023-08-20T01:44:52;9.77;;;7.50;;
3541;SDS011;1785;47.388;8.538;2023-08-20T01:47:19;8.60;;;6.63;;
3541;SDS011;1785;47.388;8.538;2023-08-20T01:49:45;9.00;;;8.10;;
3541;SDS011;1785;47.388;8.538;2023-08-20T01:52:11;7.10;;;6.40;;
3541;SDS011;1785;47.388;8.538;2023-08-20T01:54:37;8.70;;;7.73;;
3541;SDS011;1785;47.388;8.538;2023-08-20T01:57:03;9.70;;;8.13;;
3541;SDS011;1785;47.388;8.538;2023-08-20T01:59:29;13.77;;;8.20;;
3541;SDS011;1785;47.388;8.538;2023-08-20T02:01:55;7.90;;;6.77;;
3541;SDS011;1785;47.388;8.538;2023-08-20T02:04:22;7.47;;;6.80;;
3541;SDS011;1785;47.388;8.538;2023-08-20T02:06:48;11.70;;;6.87;;
3541;SDS011;1785;47.388;8.538;2023-08-20T02:09:14;10.47;;;7.77;;
3541;SDS011;1785;47.388;8.538;2023-08-20T02:11:40;10.53;;;7.90;;
3541;SDS011;1785;47.388;8.538;2023-08-20T02:14:06;8.70;;;6.80;;
3541;SDS011;1785;47.388;8.538;2023-08-20T02:16:32;7.77;;;7.10;;
3541;SDS011;1785;47.388;8.538;2023-08-20T02:18:58;8.67;;;7.83;;
3541;SDS011;1785;47.388;8.538;2023-08-20T02:21:25;7.30;;;6.60;;
3541;SDS011;1785;47.388;8.538;2023-08-20T02:23:51;8.73;;;7.60;;
3541;SDS011;1785;47.388;8.538;2023-08-20T02:26:17;7.90;;;7.10;;
3541;SDS011;1785;47.388;8.538;2023-08-20T02:28:43;9.00;;;7.53;;
3541;SDS011;1785;47.388;8.538;2023-08-20T02:31:09;9.10;;;7.90;;
3541;SDS011;1785;47.388;8.538;2023-08-20T02:33:35;8.90;;;8.00;;
3541;SDS011;1785;47.388;8.538;2023-08-20T02:36:01;8.40;;;7.53;;
3541;SDS011;1785;47.388;8.538;2023-08-20T02:38:28;7.77;;;7.00;;
3541;SDS011;1785;47.388;8.538;2023-08-20T02:40:55;9.23;;;8.03;;
3541;SDS011;1785;47.388;8.538;2023-08-20T02:43:21;8.13;;;7.27;;
3541;SDS011;1785;47.388;8.538;2023-08-20T02:45:47;11.70;;;7.47;;
3541;SDS011;1785;47.388;8.538;2023-08-20T02:48:13;8.80;;;7.83;;
3541;SDS011;1785;47.388;8.538;2023-08-20T02:50:40;12.67;;;7.63;;
3541;SDS011;1785;47.388;8.538;2023-08-20T02:53:06;10.63;;;8.77;;
3541;SDS011;1785;47.388;8.538;2023-08-20T02:55:33;8.30;;;7.43;;
3541;SDS011;1785;47.388;8.538;2023-08-20T02:58:00;8.93;;;8.13;;
3541;SDS011;1785;47.388;8.538;2023-08-20T03:00:28;9.53;;;8.10;;
3541;SDS011;1785;47.388;8.538;2023-08-20T03:02:54;9.10;;;8.20;;
3541;SDS011;1785;47.388;8.538;2023-08-20T03:05:21;8.43;;;7.63;;
3541;SDS011;1785;47.388;8.538;2023-08-20T03:07:47;9.30;;;7.40;;
3541;SDS011;1785;47.388;8.538;2023-08-20T03:10:13;7.33;;;6.70;;
3541;SDS011;1785;47.388;8.538;2023-08-20T03:12:40;8.03;;;7.23;;
3541;SDS011;1785;47.388;8.538;2023-08-20T03:15:07;9.70;;;7.67;;
3541;SDS011;1785;47.388;8.538;2023-08-20T03:17:33;9.10;;;8.20;;
3541;SDS011;1785;47.388;8.538;2023-08-20T03:20:00;7.70;;;7.10;;
3541;SDS011;1785;47.388;8.538;2023-08-20T03:22:26;9.70;;;7.20;;
3541;SDS011;1785;47.388;8.538;2023-08-20T03:24:53;8.10;;;7.40;;
3541;SDS011;1785;47.388;8.538;2023-08-20T03:27:19;12.50;;;8.60;;
3541;SDS011;1785;47.388;8.538;2023-08-20T03:29:46;10.23;;;8.10;;
3541;SDS011;1785;47.388;8.538;2023-08-20T03:32:12;8.87;;;7.80;;
3541;SDS011;1785;47.388;8.538;2023-08-20T03:34:38;10.63;;;9.33;;
3541;SDS011;1785;47.388;8.538;2023-08-20T03:37:04;8.60;;;7.80;;
3541;SDS011;1785;47.388;8.538;2023-08-20T03:39:30;9.60;;;8.33;;
3541;SDS011;1785;47.388;8.538;2023-08-20T03:41:56;10.40;;;7.37;;
3541;SDS011;1785;47.388;8.538;2023-08-20T03:44:23;8.57;;;6.93;;
3541;SDS011;1785;47.388;8.538;2023-08-20T03:46:50;11.53;;;7.43;;
3541;SDS011;1785;47.388;8.538;2023-08-20T03:49:16;7.10;;;6.43;;
3541;SDS011;1785;47.388;8.538;2023-08-20T03:51:42;7.50;;;6.80;;
3541;SDS011;1785;47.388;8.538;2023-08-20T03:54:08;13.20;;;8.10;;
3541;SDS011;1785;47.388;8.538;2023-08-20T03:56:34;9.10;;;8.20;;
3541;SDS011;1785;47.388;8.538;2023-08-20T03:59:01;9.50;;;7.80;;
3541;SDS011;1785;47.388;8.538;2023-08-20T04:01:27;14.30;;;8.60;;
3541;SDS011;1785;47.388;8.538;2023-08-20T04:03:54;9.23;;;8.43;;
3541;SDS011;1785;47.388;8.538;2023-08-20T04:06:20;8.65;;;7.82;;
3541;SDS011;1785;47.388;8.538;2023-08-20T04:08:46;9.37;;;8.27;;
3541;SDS011;1785;47.388;8.538;2023-08-20T04:11:13;11.67;;;7.87;;
3541;SDS011;1785;47.388;8.538;2023-08-20T04:13:39;12.30;;;7.97;;
3541;SDS011;1785;47.388;8.538;2023-08-20T04:16:07;9.83;;;7.50;;
3541;SDS011;1785;47.388;8.538;2023-08-20T04:18:33;12.70;;;8.60;;
3541;SDS011;1785;47.388;8.538;2023-08-20T04:21:00;9.20;;;8.30;;
3541;SDS011;1785;47.388;8.538;2023-08-20T04:23:26;8.83;;;7.93;;
3541;SDS011;1785;47.388;8.538;2023-08-20T04:25:52;14.18;;;9.02;;
3541;SDS011;1785;47.388;8.538;2023-08-20T04:28:18;8.70;;;7.90;;
3541;SDS011;1785;47.388;8.538;2023-08-20T04:30:44;10.37;;;9.47;;
3541;SDS011;1785;47.388;8.538;2023-08-20T04:33:10;8.20;;;7.10;;
3541;SDS011;1785;47.388;8.538;2023-08-20T04:35:36;11.97;;;9.17;;
3541;SDS011;1785;47.388;8.538;2023-08-20T04:38:03;13.13;;;9.30;;
3541;SDS011;1785;47.388;8.538;2023-08-20T04:40:29;8.17;;;7.53;;
3541;SDS011;1785;47.388;8.538;2023-08-20T04:42:55;8.10;;;7.30;;
3541;SDS011;1785;47.388;8.538;2023-08-20T04:45:22;7.77;;;6.97;;
3541;SDS011;1785;47.388;8.538;2023-08-20T04:47:48;9.17;;;8.37;;
3541;SDS011;1785;47.388;8.538;2023-08-20T04:50:14;9.97;;;8.63;;
3541;SDS011;1785;47.388;8.538;2023-08-20T04:52:40;9.77;;;8.00;;
3541;SDS011;1785;47.388;8.538;2023-08-20T04:55:07;12.70;;;9.30;;
3541;SDS011;1785;47.388;8.538;2023-08-20T04:57:33;9.60;;;8.80;;
3541;SDS011;1785;47.388;8.538;2023-08-20T04:59:59;10.03;;;9.23;;
3541;SDS011;1785;47.388;8.538;2023-08-20T05:02:25;10.20;;;9.07;;
3541;SDS011;1785;47.388;8.538;2023-08-20T05:04:51;10.07;;;9.10;;
3541;SDS011;1785;47.388;8.538;2023-08-20T05:07:18;11.17;;;10.07;;
3541;SDS011;1785;47.388;8.538;2023-08-20T05:09:44;9.50;;;8.50;;
3541;SDS011;1785;47.388;8.538;2023-08-20T05:12:10;10.87;;;9.67;;
3541;SDS011;1785;47.388;8.538;2023-08-20T05:14:36;10.10;;;9.10;;
3541;SDS011;1785;47.388;8.538;2023-08-20T05:17:02;9.70;;;8.00;;
3541;SDS011;1785;47.388;8.538;2023-08-20T05:19:28;10.23;;;8.70;;
3541;SDS011;1785;47.388;8.538;2023-08-20T05:21:54;12.30;;;8.70;;
3541;SDS011;1785;47.388;8.538;2023-08-20T05:24:23;14.07;;;8.90;;
3541;SDS011;1785;47.388;8.538;2023-08-20T05:26:50;9.57;;;8.57;;
3541;SDS011;1785;47.388;8.538;2023-08-20T05:29:30;10.00;;;9.10;;
3541;SDS011;1785;47.388;8.538;2023-08-20T05:31:56;10.00;;;9.00;;
3541;SDS011;1785;47.388;8.538;2023-08-20T05:34:22;14.87;;;9.00;;
3541;SDS011;1785;47.388;8.538;2023-08-20T05:36:48;12.47;;;8.73;;
3541;SDS011;1785;47.388;8.538;2023-08-20T05:39:14;13.97;;;9.80;;
3541;SDS011;1785;47.388;8.538;2023-08-20T05:41:40;10.23;;;9.30;;
3541;SDS011;1785;47.388;8.538;2023-08-20T05:44:06;11.40;;;10.27;;
3541;SDS011;1785;47.388;8.538;2023-08-20T05:46:33;13.10;;;10.70;;
3541;SDS011;1785;47.388;8.538;2023-08-20T05:48:59;11.20;;;10.20;;
3541;SDS011;1785;47.388;8.538;2023-08-20T05:51:25;11.90;;;9.90;;
3541;SDS011;1785;47.388;8.538;2023-08-20T05:53:51;12.53;;;9.23;;
3541;SDS011;1785;47.388;8.538;2023-08-20T05:56:17;12.73;;;10.00;;
3541;SDS011;1785;47.388;8.538;2023-08-20T05:58:43;11.80;;;9.90;;
3541;SDS011;1785;47.388;8.538;2023-08-20T06:01:09;12.60;;;9.50;;
3541;SDS011;1785;47.388;8.538;2023-08-20T06:03:36;10.50;;;9.50;;
3541;SDS011;1785;47.388;8.538;2023-08-20T06:06:02;11.17;;;9.77;;
3541;SDS011;1785;47.388;8.538;2023-08-20T06:08:28;10.70;;;9.80;;
3541;SDS011;1785;47.388;8.538;2023-08-20T06:10:54;11.37;;;9.83;;
3541;SDS011;1785;47.388;8.538;2023-08-20T06:13:20;12.47;;;9.57;;
3541;SDS011;1785;47.388;8.538;2023-08-20T06:15:46;10.05;;;9.00;;
3541;SDS011;1785;47.388;8.538;2023-08-20T06:18:12;10.10;;;9.30;;
3541;SDS011;1785;47.388;8.538;2023-08-20T06:20:39;11.20;;;9.60;;
3541;SDS011;1785;47.388;8.538;2023-08-20T06:23:06;13.70;;;10.17;;
3541;SDS011;1785;47.388;8.538;2023-08-20T06:25:32;10.87;;;9.97;;
3541;SDS011;1785;47.388;8.538;2023-08-20T06:27:58;17.93;;;9.87;;
3541;SDS011;1785;47.388;8.538;2023-08-20T06:30:24;10.23;;;9.00;;
3541;SDS011;1785;47.388;8.538;2023-08-20T06:32:50;11.30;;;10.30;;
3541;SDS011;1785;47.388;8.538;2023-08-20T06:35:16;12.20;;;10.30;;
3541;SDS011;1785;47.388;8.538;2023-08-20T06:37:43;11.63;;;10.17;;
3541;SDS011;1785;47.388;8.538;2023-08-20T06:40:09;15.70;;;10.70;;
3541;SDS011;1785;47.388;8.538;2023-08-20T06:42:35;11.00;;;9.23;;
3541;SDS011;1785;47.388;8.538;2023-08-20T06:45:02;10.73;;;9.50;;
3541;SDS011;1785;47.388;8.538;2023-08-20T06:47:28;10.33;;;9.33;;
3541;SDS011;1785;47.388;8.538;2023-08-20T06:49:54;12.73;;;9.93;;
3541;SDS011;1785;47.388;8.538;2023-08-20T06:52:20;13.20;;;10.13;;
3541;SDS011;1785;47.388;8.538;2023-08-20T06:54:47;11.65;;;10.10;;
3541;SDS011;1785;47.388;8.538;2023-08-20T06:57:13;10.63;;;9.73;;
3541;SDS011;1785;47.388;8.538;2023-08-20T06:59:39;12.23;;;11.03;;
3541;SDS011;1785;47.388;8.538;2023-08-20T07:02:05;12.10;;;10.70;;
3541;SDS011;1785;47.388;8.538;2023-08-20T07:04:31;15.10;;;12.07;;
3541;SDS011;1785;47.388;8.538;2023-08-20T07:06:58;15.20;;;10.60;;
3541;SDS011;1785;47.388;8.538;2023-08-20T07:09:24;11.40;;;10.23;;
3541;SDS011;1785;47.388;8.538;2023-08-20T07:11:51;12.15;;;10.20;;
3541;SDS011;1785;47.388;8.538;2023-08-20T07:14:17;11.50;;;9.43;;
3541;SDS011;1785;47.388;8.538;2023-08-20T07:16:43;13.63;;;9.80;;
3541;SDS011;1785;47.388;8.538;2023-08-20T07:19:09;12.13;;;10.90;;
3541;SDS011;1785;47.388;8.538;2023-08-20T07:21:35;12.40;;;10.00;;
3541;SDS011;1785;47.388;8.538;2023-08-20T07:24:01;13.30;;;10.13;;
3541;SDS011;1785;47.388;8.538;2023-08-20T07:26:27;11.43;;;10.23;;
3541;SDS011;1785;47.388;8.538;2023-08-20T07:28:55;10.50;;;9.50;;
3541;SDS011;1785;47.388;8.538;2023-08-20T07:31:25;9.87;;;8.77;;
3541;SDS011;1785;47.388;8.538;2023-08-20T07:33:51;10.87;;;9.87;;
3541;SDS011;1785;47.388;8.538;2023-08-20T07:36:19;13.20;;;9.83;;
3541;SDS011;1785;47.388;8.538;2023-08-20T07:38:46;11.40;;;10.20;;
3541;SDS011;1785;47.388;8.538;2023-08-20T07:41:13;12.03;;;10.83;;
3541;SDS011;1785;47.388;8.538;2023-08-20T07:43:40;12.67;;;11.37;;
3541;SDS011;1785;47.388;8.538;2023-08-20T07:46:07;11.80;;;9.83;;
3541;SDS011;1785;47.388;8.538;2023-08-20T07:48:34;15.47;;;10.23;;
3541;SDS011;1785;47.388;8.538;2023-08-20T07:51:00;13.02;;;10.75;;
3541;SDS011;1785;47.388;8.538;2023-08-20T07:53:27;11.23;;;9.90;;
3541;SDS011;1785;47.388;8.538;2023-08-20T07:55:54;12.10;;;10.80;;
3541;SDS011;1785;47.388;8.538;2023-08-20T07:58:20;12.10;;;11.10;;
3541;SDS011;1785;47.388;8.538;2023-08-20T08:00:46;11.67;;;10.33;;
3541;SDS011;1785;47.388;8.538;2023-08-20T08:03:13;15.53;;;11.37;;
3541;SDS011;1785;47.388;8.538;2023-08-20T08:05:39;12.50;;;11.20;;
3541;SDS011;1785;47.388;8.538;2023-08-20T08:08:06;12.00;;;9.93;;
3541;SDS011;1785;47.388;8.538;2023-08-20T08:10:32;12.83;;;9.73;;
3541;SDS011;1785;47.388;8.538;2023-08-20T08:12:58;12.00;;;10.80;;
3541;SDS011;1785;47.388;8.538;2023-08-20T08:15:24;15.10;;;11.20;;
3541;SDS011;1785;47.388;8.538;2023-08-20T08:17:50;13.60;;;11.43;;
3541;SDS011;1785;47.388;8.538;2023-08-20T08:20:17;11.93;;;10.73;;
3541;SDS011;1785;47.388;8.538;2023-08-20T08:22:43;12.40;;;11.17;;
3541;SDS011;1785;47.388;8.538;2023-08-20T08:25:09;15.63;;;10.97;;
3541;SDS011;1785;47.388;8.538;2023-08-20T08:27:35;12.63;;;11.43;;
3541;SDS011;1785;47.388;8.538;2023-08-20T08:30:01;12.23;;;10.97;;
3541;SDS011;1785;47.388;8.538;2023-08-20T08:32:28;11.87;;;10.60;;
3541;SDS011;1785;47.388;8.538;2023-08-20T08:34:54;11.93;;;10.20;;
3541;SDS011;1785;47.388;8.538;2023-08-20T08:37:20;13.40;;;10.80;;
3541;SDS011;1785;47.388;8.538;2023-08-20T08:39:46;17.83;;;11.97;;
3541;SDS011;1785;47.388;8.538;2023-08-20T08:42:13;10.77;;;9.47;;
3541;SDS011;1785;47.388;8.538;2023-08-20T08:44:40;12.50;;;11.30;;
3541;SDS011;1785;47.388;8.538;2023-08-20T08:47:07;15.50;;;11.10;;
3541;SDS011;1785;47.388;8.538;2023-08-20T08:49:33;11.13;;;9.90;;
3541;SDS011;1785;47.388;8.538;2023-08-20T08:51:59;11.50;;;10.30;;
3541;SDS011;1785;47.388;8.538;2023-08-20T08:54:27;11.13;;;10.03;;
3541;SDS011;1785;47.388;8.538;2023-08-20T08:56:53;12.60;;;10.10;;
3541;SDS011;1785;47.388;8.538;2023-08-20T08:59:19;15.37;;;10.10;;
3541;SDS011;1785;47.388;8.538;2023-08-20T09:01:45;11.57;;;10.43;;
3541;SDS011;1785;47.388;8.538;2023-08-20T09:04:12;9.70;;;8.73;;
3541;SDS011;1785;47.388;8.538;2023-08-20T09:06:44;11.40;;;10.40;;
3541;SDS011;1785;47.388;8.538;2023-08-20T09:09:11;11.47;;;10.40;;
3541;SDS011;1785;47.388;8.538;2023-08-20T09:11:38;11.23;;;10.07;;
3541;SDS011;1785;47.388;8.538;2023-08-20T09:14:04;13.03;;;9.90;;
3541;SDS011;1785;47.388;8.538;2023-08-20T09:16:30;12.70;;;10.77;;
3541;SDS011;1785;47.388;8.538;2023-08-20T09:18:58;10.87;;;9.77;;
3541;SDS011;1785;47.388;8.538;2023-08-20T09:21:26;10.33;;;9.33;;
3541;SDS011;1785;47.388;8.538;2023-08-20T09:23:53;11.90;;;9.50;;
3541;SDS011;1785;47.388;8.538;2023-08-20T09:26:19;11.90;;;10.10;;
3541;SDS011;1785;47.388;8.538;2023-08-20T09:28:46;11.40;;;10.40;;
3541;SDS011;1785;47.388;8.538;2023-08-20T09:31:12;11.77;;;10.00;;
3541;SDS011;1785;47.388;8.538;2023-08-20T09:33:48;12.67;;;10.30;;
3541;SDS011;1785;47.388;8.538;2023-08-20T09:36:15;12.27;;;11.07;;
3541;SDS011;1785;47.388;8.538;2023-08-20T09:38:41;14.10;;;10.60;;
3541;SDS011;1785;47.388;8.538;2023-08-20T09:41:08;12.17;;;10.70;;
3541;SDS011;1785;47.388;8.538;2023-08-20T09:43:34;12.80;;;10.50;;
3541;SDS011;1785;47.388;8.538;2023-08-20T09:46:04;14.97;;;10.30;;
3541;SDS011;1785;47.388;8.538;2023-08-20T09:48:33;12.37;;;10.40;;
3541;SDS011;1785;47.388;8.538;2023-08-20T09:51:00;14.83;;;11.60;;
3541;SDS011;1785;47.388;8.538;2023-08-20T09:53:32;13.03;;;10.00;;
3541;SDS011;1785;47.388;8.538;2023-08-20T09:56:03;10.97;;;9.97;;
3541;SDS011;1785;47.388;8.538;2023-08-20T09:58:35;12.10;;;10.93;;
3541;SDS011;1785;47.388;8.538;2023-08-20T10:01:02;15.85;;;11.85;;
3541;SDS011;1785;47.388;8.538;2023-08-20T10:03:29;13.77;;;10.53;;
3541;SDS011;1785;47.388;8.538;2023-08-20T10:05:56;12.20;;;10.83;;
3541;SDS011;1785;47.388;8.538;2023-08-20T10:08:23;12.23;;;10.93;;
3541;SDS011;1785;47.388;8.538;2023-08-20T10:10:49;11.10;;;10.00;;
3541;SDS011;1785;47.388;8.538;2023-08-20T10:13:16;11.50;;;10.23;;
3541;SDS011;1785;47.388;8.538;2023-08-20T10:15:43;12.37;;;11.30;;
3541;SDS011;1785;47.388;8.538;2023-08-20T10:18:10;12.97;;;11.77;;
3541;SDS011;1785;47.388;8.538;2023-08-20T10:20:38;18.00;;;11.40;;
3541;SDS011;1785;47.388;8.538;2023-08-20T10:23:05;11.33;;;10.27;;
3541;SDS011;1785;47.388;8.538;2023-08-20T10:25:33;12.43;;;11.10;;
3541;SDS011;1785;47.388;8.538;2023-08-20T10:28:13;15.83;;;10.50;;
3541;SDS011;1785;47.388;8.538;2023-08-20T10:33:29;15.50;;;10.33;;
3541;SDS011;1785;47.388;8.538;2023-08-20T10:35:55;11.30;;;10.02;;
3541;SDS011;1785;47.388;8.538;2023-08-20T10:38:22;11.50;;;10.50;;
3541;SDS011;1785;47.388;8.538;2023-08-20T10:40:49;16.33;;;11.00;;
3541;SDS011;1785;47.388;8.538;2023-08-20T10:43:28;16.47;;;10.93;;
3541;SDS011;1785;47.388;8.538;2023-08-20T10:46:08;12.67;;;11.47;;
3541;SDS011;1785;47.388;8.538;2023-08-20T10:48:39;12.40;;;10.97;;
3541;SDS011;1785;47.388;8.538;2023-08-20T10:51:07;14.73;;;10.70;;
3541;SDS011;1785;47.388;8.538;2023-08-20T10:53:37;10.90;;;10.00;;
3541;SDS011;1785;47.388;8.538;2023-08-20T10:56:11;11.53;;;9.60;;
3541;SDS011;1785;47.388;8.538;2023-08-20T10:58:40;12.77;;;10.48;;
3541;SDS011;1785;47.388;8.538;2023-08-20T11:01:14;11.47;;;10.27;;
3541;SDS011;1785;47.388;8.538;2023-08-20T11:03:41;11.43;;;10.43;;
3541;SDS011;1785;47.388;8.538;2023-08-20T11:06:09;16.10;;;10.30;;
3541;SDS011;1785;47.388;8.538;2023-08-20T11:08:35;13.07;;;11.20;;
3541;SDS011;1785;47.388;8.538;2023-08-20T11:11:02;13.83;;;9.93;;
3541;SDS011;1785;47.388;8.538;2023-08-20T11:13:28;11.23;;;10.13;;
3541;SDS011;1785;47.388;8.538;2023-08-20T11:15:55;11.10;;;10.10;;
3541;SDS011;1785;47.388;8.538;2023-08-20T11:18:21;14.27;;;10.73;;
3541;SDS011;1785;47.388;8.538;2023-08-20T11:20:47;15.57;;;9.40;;
3541;SDS011;1785;47.388;8.538;2023-08-20T11:23:14;10.40;;;9.30;;
3541;SDS011;1785;47.388;8.538;2023-08-20T11:25:42;10.77;;;8.87;;
3541;SDS011;1785;47.388;8.538;2023-08-20T11:28:08;9.10;;;8.20;;
3541;SDS011;1785;47.388;8.538;2023-08-20T11:30:34;13.23;;;9.60;;
3541;SDS011;1785;47.388;8.538;2023-08-20T11:33:01;11.77;;;9.88;;
3541;SDS011;1785;47.388;8.538;2023-08-20T11:35:27;10.83;;;9.67;;
3541;SDS011;1785;47.388;8.538;2023-08-20T11:37:54;10.87;;;9.13;;
3541;SDS011;1785;47.388;8.538;2023-08-20T11:40:20;10.43;;;9.20;;
3541;SDS011;1785;47.388;8.538;2023-08-20T11:42:48;10.27;;;9.27;;
3541;SDS011;1785;47.388;8.538;2023-08-20T11:45:14;10.13;;;9.10;;
3541;SDS011;1785;47.388;8.538;2023-08-20T11:47:40;9.93;;;9.00;;
3541;SDS011;1785;47.388;8.538;2023-08-20T11:50:07;11.57;;;9.30;;
3541;SDS011;1785;47.388;8.538;2023-08-20T11:52:34;10.73;;;9.00;;
3541;SDS011;1785;47.388;8.538;2023-08-20T11:55:01;11.97;;;8.20;;
3541;SDS011;1785;47.388;8.538;2023-08-20T11:57:29;11.63;;;8.50;;
3541;SDS011;1785;47.388;8.538;2023-08-20T11:59:59;12.20;;;8.10;;
3541;SDS011;1785;47.388;8.538;2023-08-20T12:02:29;10.30;;;7.87;;
3541;SDS011;1785;47.388;8.538;2023-08-20T12:04:55;12.43;;;7.90;;
3541;SDS011;1785;47.388;8.538;2023-08-20T12:07:24;12.73;;;7.97;;
3541;SDS011;1785;47.388;8.538;2023-08-20T12:09:51;12.00;;;8.70;;
3541;SDS011;1785;47.388;8.538;2023-08-20T12:12:17;10.00;;;8.03;;
3541;SDS011;1785;47.388;8.538;2023-08-20T12:14:46;11.30;;;8.17;;
3541;SDS011;1785;47.388;8.538;2023-08-20T12:17:12;8.47;;;7.00;;
3541;SDS011;1785;47.388;8.538;2023-08-20T12:19:42;10.60;;;7.57;;
3541;SDS011;1785;47.388;8.538;2023-08-20T12:22:08;11.70;;;8.10;;
3541;SDS011;1785;47.388;8.538;2023-08-20T12:24:34;8.70;;;7.80;;
3541;SDS011;1785;47.388;8.538;2023-08-20T12:27:00;8.50;;;7.40;;
3541;SDS011;1785;47.388;8.538;2023-08-20T12:29:26;8.33;;;7.37;;
3541;SDS011;1785;47.388;8.538;2023-08-20T12:31:52;8.85;;;7.25;;
3541;SDS011;1785;47.388;8.538;2023-08-20T12:34:19;8.13;;;7.00;;
3541;SDS011;1785;47.388;8.538;2023-08-20T12:36:46;12.70;;;7.57;;
3541;SDS011;1785;47.388;8.538;2023-08-20T12:39:12;11.53;;;8.60;;
3541;SDS011;1785;47.388;8.538;2023-08-20T12:41:39;11.37;;;8.10;;
3541;SDS011;1785;47.388;8.538;2023-08-20T12:44:05;10.33;;;9.23;;
3541;SDS011;1785;47.388;8.538;2023-08-20T12:46:31;15.00;;;8.00;;
3541;SDS011;1785;47.388;8.538;2023-08-20T12:48:58;12.20;;;8.27;;
3541;SDS011;1785;47.388;8.538;2023-08-20T12:51:24;9.33;;;7.10;;
3541;SDS011;1785;47.388;8.538;2023-08-20T12:53:50;9.50;;;6.93;;
3541;SDS011;1785;47.388;8.538;2023-08-20T12:56:16;11.20;;;6.97;;
3541;SDS011;1785;47.388;8.538;2023-08-20T12:58:45;13.30;;;7.67;;
3541;SDS011;1785;47.388;8.538;2023-08-20T13:01:11;8.70;;;7.57;;
3541;SDS011;1785;47.388;8.538;2023-08-20T13:03:38;8.67;;;7.50;;
3541;SDS011;1785;47.388;8.538;2023-08-20T13:06:05;7.63;;;6.93;;
3541;SDS011;1785;47.388;8.538;2023-08-20T13:08:32;9.30;;;7.40;;
3541;SDS011;1785;47.388;8.538;2023-08-20T13:10:58;9.77;;;8.87;;
3541;SDS011;1785;47.388;8.538;2023-08-20T13:13:28;10.93;;;8.10;;
3541;SDS011;1785;47.388;8.538;2023-08-20T13:15:57;10.30;;;8.57;;
3541;SDS011;1785;47.388;8.538;2023-08-20T13:18:25;9.10;;;7.50;;
3541;SDS011;1785;47.388;8.538;2023-08-20T13:20:51;8.67;;;7.93;;
3541;SDS011;1785;47.388;8.538;2023-08-20T13:23:18;8.37;;;7.50;;
3541;SDS011;1785;47.388;8.538;2023-08-20T13:25:44;12.30;;;8.00;;
3541;SDS011;1785;47.388;8.538;2023-08-20T13:28:10;8.27;;;7.47;;
3541;SDS011;1785;47.388;8.538;2023-08-20T13:30:36;10.10;;;7.30;;
3541;SDS011;1785;47.388;8.538;2023-08-20T13:33:02;10.73;;;7.40;;
3541;SDS011;1785;47.388;8.538;2023-08-20T13:35:29;9.50;;;8.60;;
3541;SDS011;1785;47.388;8.538;2023-08-20T13:37:55;7.97;;;7.13;;
3541;SDS011;1785;47.388;8.538;2023-08-20T13:40:22;11.03;;;7.10;;
3541;SDS011;1785;47.388;8.538;2023-08-20T13:42:48;10.90;;;7.10;;
3541;SDS011;1785;47.388;8.538;2023-08-20T13:45:14;9.03;;;6.30;;
3541;SDS011;1785;47.388;8.538;2023-08-20T13:47:40;9.63;;;7.80;;
3541;SDS011;1785;47.388;8.538;2023-08-20T13:50:07;13.00;;;6.67;;
3541;SDS011;1785;47.388;8.538;2023-08-20T13:52:34;11.17;;;6.63;;
3541;SDS011;1785;47.388;8.538;2023-08-20T13:55:00;7.50;;;6.20;;
3541;SDS011;1785;47.388;8.538;2023-08-20T13:57:29;14.00;;;6.50;;
3541;SDS011;1785;47.388;8.538;2023-08-20T13:59:55;12.47;;;6.70;;
3541;SDS011;1785;47.388;8.538;2023-08-20T14:02:21;12.90;;;7.23;;
3541;SDS011;1785;47.388;8.538;2023-08-20T14:04:47;10.83;;;8.33;;
3541;SDS011;1785;47.388;8.538;2023-08-20T14:07:13;10.03;;;7.20;;
3541;SDS011;1785;47.388;8.538;2023-08-20T14:09:39;11.10;;;8.87;;
3541;SDS011;1785;47.388;8.538;2023-08-20T14:12:06;8.23;;;7.43;;
3541;SDS011;1785;47.388;8.538;2023-08-20T14:14:33;8.90;;;7.13;;
3541;SDS011;1785;47.388;8.538;2023-08-20T14:16:59;9.63;;;7.23;;
3541;SDS011;1785;47.388;8.538;2023-08-20T14:19:25;11.00;;;7.00;;
3541;SDS011;1785;47.388;8.538;2023-08-20T14:21:51;8.90;;;8.10;;
3541;SDS011;1785;47.388;8.538;2023-08-20T14:24:17;9.27;;;7.10;;
3541;SDS011;1785;47.388;8.538;2023-08-20T14:29:12;10.77;;;7.00;;
3541;SDS011;1785;47.388;8.538;2023-08-20T14:31:39;8.10;;;7.40;;
3541;SDS011;1785;47.388;8.538;2023-08-20T14:34:05;9.43;;;6.80;;
3541;SDS011;1785;47.388;8.538;2023-08-20T14:36:31;8.10;;;7.30;;
3541;SDS011;1785;47.388;8.538;2023-08-20T14:38:57;8.50;;;7.70;;
3541;SDS011;1785;47.388;8.538;2023-08-20T14:41:23;7.83;;;7.03;;
3541;SDS011;1785;47.388;8.538;2023-08-20T14:43:49;11.93;;;8.07;;
3541;SDS011;1785;47.388;8.538;2023-08-20T14:46:15;15.70;;;7.50;;
3541;SDS011;1785;47.388;8.538;2023-08-20T14:48:42;8.40;;;7.50;;
3541;SDS011;1785;47.388;8.538;2023-08-20T14:51:09;10.43;;;8.60;;
3541;SDS011;1785;47.388;8.538;2023-08-20T14:53:35;7.47;;;6.70;;
3541;SDS011;1785;47.388;8.538;2023-08-20T14:56:01;9.87;;;7.00;;
3541;SDS011;1785;47.388;8.538;2023-08-20T14:58:28;9.13;;;8.07;;
3541;SDS011;1785;47.388;8.538;2023-08-20T15:00:54;9.10;;;7.53;;
3541;SDS011;1785;47.388;8.538;2023-08-20T15:03:20;8.70;;;7.83;;
3541;SDS011;1785;47.388;8.538;2023-08-20T15:05:47;11.93;;;6.93;;